This is the latest recevied weather packets stored in our database for station/object NI4CE-10. If no packets are shown the sender has not sent any weather packets the latest 10 day(s).
| Time | Temp. | Humidity | Pressure | Rain* | Wind** | Luminosity | Snow |
|---|---|---|---|---|---|---|---|
| 1777800661 | 18.89° C | 100% | 1017.1 hPa | 0 mm | - | - | - |
| 1777800361 | 19.44° C | 100% | 1017.1 hPa | 0 mm | - | - | - |
| 1777800061 | 19.44° C | 100% | 1017.1 hPa | 0 mm | - | - | - |
| 1777799942 | 19.44° C | 100% | 1017.1 hPa | 0 mm | - | - | - |
| 1777799761 | 19.44° C | 100% | 1017.1 hPa | 0 mm | - | - | - |
| 1777799461 | 19.44° C | 100% | 1016.9 hPa | 0 mm | - | - | - |
| 1777799161 | 19.44° C | 100% | 1016.9 hPa | 0 mm | - | - | - |
| 1777798861 | 19.44° C | 100% | 1017.1 hPa | 0 mm | - | - | - |
| 1777798795 | 19.44° C | 100% | 1017 hPa | 0 mm | - | - | - |
| 1777798561 | 19.44° C | 100% | 1017 hPa | 0 mm | - | - | - |
| 1777798508 | 19.44° C | 100% | 1017 hPa | 0 mm | - | - | - |
| 1777798261 | 19.44° C | 100% | 1017 hPa | 0 mm | - | - | - |
| 1777797981 | 19.44° C | 100% | 1016.6 hPa | 0 mm | - | - | - |
| 1777797961 | 19.44° C | 100% | 1017 hPa | 0 mm | - | - | - |
| 1777797945 | 19.44° C | 100% | 1016.5 hPa | 0.25 mm | - | - | - |
| 1777797661 | 19.44° C | 100% | 1016.6 hPa | 0 mm | - | - | - |
| 1777797361 | 20° C | 100% | 1016.5 hPa | 0 mm | - | - | - |
| 1777797061 | 19.44° C | 100% | 1016.5 hPa | 0.25 mm | - | - | - |
| 1777796761 | 19.44° C | 100% | 1016.5 hPa | 0.25 mm | - | - | - |
| 1777796461 | 19.44° C | 100% | 1016.6 hPa | 0.25 mm | - | - | - |
| 1777796182 | 20° C | 100% | 1016.3 hPa | 2.29 mm | - | - | - |
| 1777796161 | 20° C | 100% | 1016.6 hPa | 1.02 mm | - | - | - |
| 1777796025 | 20° C | 100% | 1016.3 hPa | 2.29 mm | - | - | - |
| 1777795862 | 20° C | 100% | 1016.3 hPa | 2.29 mm | - | - | - |
| 1777795825 | 20° C | 100% | 1016 hPa | 3.05 mm | - | - | - |
* Rain latest hour (hover to see other rain measurements)
** Current wind speed in m/s (hover to see current wind gust speed)